• Join FlightAware (Why Join?)
  • Login
  • US Flag 
09:51AM EDT


 

Airport Tracker/Info


-or-


 

Live Flight TrackerFlight Track Log ✈ N493TM ✈ 21-Jun-2014 ✈ KJAC - KBFI

Flight Track Log - Related Links

Times and Time Zones

All times are in EDT time to prevent confusion due to time zone crossing. See the N493TM flight status page for this flight to view local times or setup timezone preferences in your user account.

Time Position Orientation Groundspeed Altitude Reporting Facility
EDT Latitude Longitude Course Direction KTS MPH feet Rate Location/Type
02:49PM 43.5786 -110.7544 293° West 160 184 7,700  Level Salt Lake Center
02:50PM 43.5319 -110.7861 206° Southwest 184 212 9,900 1,800 Climbing Salt Lake Center
02:51PM 43.4719 -110.8244 205° Southwest 223 257 11,500 1,920 Climbing Salt Lake Center
02:52PM 43.3808 -110.8831 205° Southwest 282 325 13,900 2,280 Climbing Salt Lake Center
02:53PM 43.2441 -111.1017 293° West  Level FlightAware Approximate
02:53PM 43.2972 -110.9375 205° Southwest 325 374 16,300  Level Salt Lake Center
02:54PM 43.2845 -111.2326 293° West  Level FlightAware Approximate
02:54PM 43.2347 -111.0161 223° Southwest 319 367 18,700  Level Salt Lake Center
02:55PM 43.2456 -111.1367 277° West 324 373 21,200 2,400 Climbing Salt Lake Center
02:56PM 43.2906 -111.2425 300° West 323 372 23,700 2,340 Climbing Salt Lake Center
02:57PM 43.3419 -111.3650 300° West 320 368 26,100 2,100 Climbing Salt Lake Center
02:58PM 43.3850 -111.4728 299° West 320 368 28,100 1,500 Climbing Salt Lake Center
02:59PM 43.4292 -111.5783 300° West 320 368 29,300 900 Climbing Salt Lake Center
03:00PM 43.4783 -111.6986 299° West 354 407 30,000 720 Climbing Salt Lake Center
03:01PM 43.5300 -111.8250 299° West 374 430 30,800 720 Climbing Salt Lake Center
03:02PM 43.5850 -111.9578 300° West 396 456 31,500 720 Climbing Salt Lake Center
03:03PM 43.6531 -112.1219 300° West 407 468 32,400 720 Climbing Salt Lake Center
03:04PM 43.7092 -112.2631 299° West 418 481 33,100 660 Climbing Salt Lake Center
03:05PM 43.7706 -112.4108 300° West 419 482 33,800 420 Climbing Salt Lake Center
03:06PM 43.8286 -112.5556 299° West 425 489 34,000 60 Climbing Salt Lake Center
03:07PM 43.8878 -112.7036 299° West 435 501 34,000  Level Salt Lake Center
03:08PM 43.9461 -112.8489 299° West 435 501 34,000 60 Level Salt Lake Center
03:10PM 44.0025 -112.9933 299° West 432 497 34,200 420 Climbing Salt Lake Center
03:11PM 44.0600 -113.1392 299° West 432 497 34,900 840 Climbing Salt Lake Center
03:12PM 44.1283 -113.3125 299° West 431 496 36,000 1,020 Climbing Salt Lake Center
03:13PM 44.1842 -113.4569 298° West 430 495 37,000 840 Climbing Salt Lake Center
03:14PM 44.2400 -113.6008 298° West 427 491 37,800 480 Climbing Salt Lake Center
03:15PM 44.2958 -113.7475 298° West 427 491 38,000 60 Climbing Salt Lake Center
03:16PM 44.3525 -113.8972 298° West 429 494 38,000  Level Salt Lake Center
03:17PM 44.4111 -114.0486 298° West 436 502 38,000  Level Salt Lake Center
03:18PM 44.4806 -114.2294 298° West 439 505 38,000  Level Salt Lake Center
03:19PM 44.5344 -114.3767 297° West 435 501 38,000  Level Salt Lake Center
03:20PM 44.5886 -114.5214 298° West 425 489 38,000  Level Salt Lake Center
03:21PM 44.6417 -114.6647 298° West 417 480 38,000  Level Salt Lake Center
03:22PM 44.6939 -114.8069 297° West 417 480 38,000  Level Salt Lake Center
03:23PM 44.7475 -114.9517 298° West 416 479 38,000  Level Salt Lake Center
03:24PM 44.8117 -115.1242 298° West 416 479 38,000  Level Salt Lake Center
03:25PM 44.8653 -115.2706 297° West 418 481 38,000  Level Salt Lake Center
03:26PM 44.9175 -115.4158 297° West 419 482 38,000  Level Salt Lake Center
03:27PM 44.9703 -115.5611 297° West 419 482 38,000  Level Salt Lake Center
03:28PM 45.0219 -115.7058 297° West 419 482 38,000  Level Salt Lake Center
03:29PM 45.0847 -115.8822 297° West 419 482 38,000  Level Salt Lake Center
03:30PM 45.1353 -116.0275 296° West 418 481 38,000  Level Salt Lake Center
03:31PM 45.1867 -116.1725 297° West 417 480 38,000  Level Salt Lake Center
03:32PM 45.2381 -116.3178 297° West 417 480 38,000  Level Salt Lake Center
03:33PM 45.2881 -116.4631 296° West 415 478 38,000  Level Salt Lake Center
03:34PM 45.3372 -116.6086 296° West 415 478 38,000  Level Salt Lake Center
03:35PM 45.3981 -116.7822 297° West 414 476 38,000  Level Salt Lake Center
03:36PM 45.4472 -116.9256 296° West 409 471 38,000  Level Salt Lake Center
03:37PM 45.4961 -117.0692 296° West 407 468 38,000  Level Salt Lake Center
03:39PM 45.5536 -117.2389 296° West 399 459 38,000  Level Seattle Center
03:40PM 45.6025 -117.3847 296° West 397 457 38,000  Level Seattle Center
03:41PM 45.6494 -117.5250 296° West 396 456 38,000  Level Seattle Center
03:42PM 45.7006 -117.6783 296° West 393 452 38,000  Level Seattle Center
03:43PM 45.7478 -117.8194 296° West 393 452 38,000  Level Seattle Center
03:44PM 45.7933 -117.9611 295° West 392 451 38,000  Level Seattle Center
03:45PM 45.8400 -118.1014 296° West 392 451 38,000  Level Seattle Center
03:46PM 45.8850 -118.2431 295° West 392 451 38,000  Level Seattle Center
03:47PM 45.9306 -118.3819 295° West 390 449 38,000  Level Seattle Center
03:48PM 45.9794 -118.5364 295° West 390 449 38,000  Level Seattle Center
03:49PM 46.0250 -118.6778 295° West 390 449 38,000  Level Seattle Center
03:50PM 46.0697 -118.8183 295° West 390 449 38,000  Level Seattle Center
03:51PM 46.1144 -118.9586 295° West 390 449 38,000  Level Seattle Center
03:52PM 46.1594 -119.1025 294° West 391 450 38,000  Level Seattle Center
03:53PM 46.2042 -119.2439 295° West 391 450 38,000  Level Seattle Center
03:54PM 46.2489 -119.3894 294° West 397 457 38,000 -420 Level Seattle Center
03:55PM 46.3025 -119.5631 294° West 395 455 37,200 -900 Descending Seattle Center
03:56PM 46.3508 -119.7083 296° West 402 463 36,200 -1,080 Descending Seattle Center
03:57PM 46.4058 -119.8514 299° West 408 470 35,100 -1,140 Descending Seattle Center
03:58PM 46.4581 -119.9936 298° West 408 470 34,000 -1,380 Descending Seattle Center
03:59PM 46.5128 -120.1417 298° West 415 478 32,300 -1,740 Descending Seattle Center
04:00PM 46.5683 -120.2911 298° West 422 486 30,500 -2,100 Descending Seattle Center
04:01PM 46.6258 -120.4436 299° West 428 493 28,100 -2,400 Descending Seattle Center
04:02PM 46.6819 -120.5994 298° West 434 499 25,700 -2,340 Descending Seattle Center
04:03PM 46.7372 -120.7511 298° West 425 489 23,400 -2,280 Descending Seattle Center
04:04PM 46.7903 -120.8975 298° West 414 476 21,100 -2,400 Descending Seattle Center
04:05PM 46.8581 -121.0550 302° West 382 440 18,600 -2,220 Descending Seattle Center
04:06PM 46.9164 -121.1753 305° West 364 419 16,600 -1,920 Descending Seattle Center
04:07PM 46.9633 -121.2761 304° West 333 383 14,900 -1,800 Descending Seattle Center
04:08PM 47.0133 -121.3883 303° West 299 344 13,200 -1,740 Descending Seattle Center
04:09PM 47.0608 -121.4919 304° West 304 350 11,500 -1,140 Descending Seattle Center
04:10PM 47.1122 -121.5972 306° West 299 344 10,800 -1,260 Descending Seattle Center
04:11PM 47.1533 -121.6917 303° West 295 339 9,000 -1,920 Descending Seattle Center
04:12PM 47.2025 -121.7947 305° West 261 300 7,000 -1,380 Descending Seattle Center
04:13PM 47.2408 -121.8811 303° West 259 298 6,100 -600 Descending Seattle Center
04:14PM 47.2783 -121.9625 304° West 243 280 5,900 -360 Descending Seattle Center
04:14PM 47.2869 -121.9831 302° West 238 274 5,700 -720 Descending Seattle Center
04:15PM 47.3164 -122.0453 305° West 239 275 5,200 -660 Descending Seattle Center
04:16PM 47.3536 -122.1281 304° West 243 280 4,600 -840 Descending Seattle Center
04:17PM 47.4014 -122.1947 317° Northwest 187 215 3,500 -1,140 Descending Seattle Center
04:18PM 47.4342 -122.2219 331° Northwest 152 175 2,300 -1,140 Descending Seattle Center
04:19PM 47.4639 -122.2486 329° Northwest 107 123 1,300 -720 Descending Seattle Center
04:20PM 47.4889 -122.2678 333° Northwest 111 128 900 -600 Descending Seattle Center
04:21PM 47.5125 -122.2878 330° Northwest 113 130 200 -420 Descending Seattle Center
04:22PM 47.5422 -122.3136 330° Northwest 111 128 100 -120 Descending Seattle Center
04:24PM 47.5300 -122.3020 180° South  Level Estimated